createdAt,value
2023-01-15T00:01:31.941Z,7.94
2023-01-15T00:04:01.310Z,8.05
2023-01-15T00:06:32.790Z,7.90
2023-01-15T00:09:02.563Z,8.12
2023-01-15T00:11:34.483Z,8.02
2023-01-15T00:14:04.801Z,8.34
2023-01-15T00:16:34.420Z,7.91
2023-01-15T00:19:04.671Z,8.11
2023-01-15T00:21:34.963Z,8.24
2023-01-15T00:24:20.984Z,8.27
2023-01-15T00:27:09.677Z,8.24
2023-01-15T00:29:39.191Z,8.50
2023-01-15T00:32:10.842Z,8.25
2023-01-15T00:34:40.680Z,8.09
2023-01-15T00:37:10.217Z,7.99
2023-01-15T00:39:40.488Z,8.40
2023-01-15T00:42:13.252Z,8.29
2023-01-15T00:44:44.175Z,8.23
2023-01-15T00:47:15.194Z,8.16
2023-01-15T00:49:46.412Z,8.43
2023-01-15T00:52:16.791Z,7.94
2023-01-15T00:54:46.307Z,7.89
2023-01-15T00:57:17.316Z,8.38
2023-01-15T00:59:47.868Z,7.86
2023-01-15T01:02:16.597Z,7.90
2023-01-15T01:04:46.414Z,7.86
2023-01-15T01:07:15.490Z,8.28
2023-01-15T01:09:48.270Z,8.00
2023-01-15T01:12:21.179Z,7.88
2023-01-15T01:14:50.801Z,8.09
2023-01-15T01:17:22.859Z,7.67
2023-01-15T01:19:51.489Z,7.69
2023-01-15T01:22:21.724Z,7.69
2023-01-15T01:24:51.167Z,7.88
2023-01-15T01:27:21.372Z,7.95
2023-01-15T01:29:50.556Z,7.59
2023-01-15T01:32:18.958Z,7.91
2023-01-15T01:34:49.419Z,7.92
2023-01-15T01:37:19.237Z,7.99
2023-01-15T01:39:47.931Z,7.54
2023-01-15T01:42:19.844Z,7.85
2023-01-15T01:45:11.071Z,7.87
2023-01-15T01:47:40.540Z,7.57
2023-01-15T01:50:13.638Z,7.55
2023-01-15T01:52:47.481Z,7.34
2023-01-15T01:55:21.248Z,7.35
2023-01-15T01:57:51.929Z,7.57
2023-01-15T02:00:24.858Z,7.82
2023-01-15T02:02:55.095Z,7.50
2023-01-15T02:05:30.637Z,7.65
2023-01-15T02:07:59.157Z,7.56
2023-01-15T02:10:29.954Z,7.35
2023-01-15T02:13:08.694Z,7.56
2023-01-15T02:15:45.060Z,7.25
2023-01-15T02:18:21.130Z,7.70
2023-01-15T02:20:55.020Z,7.20
2023-01-15T02:23:49.203Z,7.60
2023-01-15T02:26:34.127Z,7.13
2023-01-15T02:29:09.886Z,7.09
2023-01-15T02:31:42.238Z,7.41
2023-01-15T02:34:18.052Z,7.07
2023-01-15T02:36:53.936Z,6.97
2023-01-15T02:39:29.616Z,6.91
2023-01-15T02:42:05.283Z,7.22
2023-01-15T02:44:43.363Z,6.99
2023-01-15T02:47:16.352Z,6.93
2023-01-15T02:49:47.164Z,6.89
2023-01-15T02:52:24.790Z,7.11
2023-01-15T02:54:57.913Z,6.74
2023-01-15T02:57:31.962Z,6.80
2023-01-15T03:00:05.032Z,6.97
2023-01-15T03:02:40.668Z,6.92
2023-01-15T03:05:12.363Z,7.27
2023-01-15T03:07:46.627Z,6.80
2023-01-15T03:10:16.753Z,7.28
2023-01-15T03:13:03.968Z,6.84
2023-01-15T03:16:12.050Z,7.05
2023-01-15T03:18:46.573Z,7.17
2023-01-15T03:21:21.447Z,7.30
2023-01-15T03:23:55.071Z,7.30
2023-01-15T03:26:28.958Z,6.91
2023-01-15T03:28:58.877Z,6.88
2023-01-15T03:31:30.651Z,7.02
2023-01-15T03:34:00.513Z,6.95
2023-01-15T03:36:30.923Z,6.78
2023-01-15T03:39:03.444Z,7.36
2023-01-15T03:42:16.166Z,6.77
2023-01-15T03:44:56.110Z,6.97
2023-01-15T03:47:34.964Z,7.06
2023-01-15T03:50:11.047Z,6.97
2023-01-15T03:52:47.539Z,7.06
2023-01-15T03:55:24.144Z,7.05
2023-01-15T03:58:06.610Z,7.34
2023-01-15T04:00:44.547Z,7.12
2023-01-15T04:03:20.004Z,7.32
2023-01-15T04:05:50.254Z,7.19
2023-01-15T04:08:24.697Z,7.24
2023-01-15T04:10:55.141Z,7.26
2023-01-15T04:13:28.204Z,7.29
2023-01-15T04:16:00.350Z,7.00
2023-01-15T04:18:30.741Z,7.34
2023-01-15T04:20:59.395Z,7.10
2023-01-15T04:23:30.855Z,7.26
2023-01-15T04:25:59.899Z,7.45
2023-01-15T04:28:31.944Z,7.35
2023-01-15T04:31:03.334Z,7.28
2023-01-15T04:33:39.872Z,7.50
2023-01-15T04:36:21.618Z,7.13
2023-01-15T04:39:05.942Z,7.54
2023-01-15T04:41:53.983Z,7.32
2023-01-15T04:44:26.798Z,7.33
2023-01-15T04:47:00.255Z,6.76
2023-01-15T04:49:30.965Z,6.94
2023-01-15T04:52:04.239Z,6.57
2023-01-15T04:54:32.642Z,6.72
2023-01-15T04:57:04.440Z,6.86
2023-01-15T04:59:33.447Z,6.75
2023-01-15T05:02:06.038Z,7.06
2023-01-15T05:04:37.890Z,6.87
2023-01-15T05:07:06.874Z,6.82
2023-01-15T05:09:36.220Z,6.89
2023-01-15T05:12:05.470Z,6.95
2023-01-15T05:14:33.960Z,6.82
2023-01-15T05:17:04.139Z,6.93
2023-01-15T05:19:32.962Z,6.75
2023-01-15T05:22:04.812Z,6.91
2023-01-15T05:24:34.900Z,7.16
2023-01-15T05:27:05.292Z,7.14
2023-01-15T05:29:34.616Z,7.20
2023-01-15T05:32:03.701Z,7.06
2023-01-15T05:34:32.981Z,6.79
2023-01-15T05:37:04.123Z,7.03
2023-01-15T05:39:32.771Z,6.93
2023-01-15T05:42:04.311Z,7.00
2023-01-15T05:44:37.265Z,6.87
2023-01-15T05:47:07.725Z,7.06
2023-01-15T05:49:37.428Z,6.99
2023-01-15T05:52:08.343Z,6.70
2023-01-15T05:54:39.412Z,7.17
2023-01-15T05:57:08.383Z,6.91
2023-01-15T05:59:37.708Z,6.67
2023-01-15T06:02:06.550Z,6.63
2023-01-15T06:04:36.927Z,6.87
2023-01-15T06:07:07.900Z,6.70
2023-01-15T06:09:36.511Z,6.83
2023-01-15T06:12:06.319Z,6.58
2023-01-15T06:14:35.064Z,6.30
2023-01-15T06:17:04.771Z,6.88
2023-01-15T06:19:34.165Z,6.79
2023-01-15T06:22:03.794Z,6.54
2023-01-15T06:24:34.467Z,6.66
2023-01-15T06:27:03.301Z,6.87
2023-01-15T06:29:31.821Z,6.74
2023-01-15T06:32:01.156Z,6.91
2023-01-15T06:34:29.639Z,6.94
2023-01-15T06:37:00.260Z,6.89
2023-01-15T06:39:29.249Z,6.71
2023-01-15T06:42:16.855Z,6.85
2023-01-15T06:45:03.582Z,6.76
2023-01-15T06:47:32.123Z,7.25
2023-01-15T06:50:01.298Z,7.07
2023-01-15T06:52:32.083Z,7.40
2023-01-15T06:55:00.661Z,7.38
2023-01-15T06:57:31.046Z,7.34
2023-01-15T07:00:00.392Z,7.65
2023-01-15T07:02:29.462Z,7.68
2023-01-15T07:04:58.430Z,7.98
2023-01-15T07:07:32.495Z,8.03
2023-01-15T07:10:04.108Z,7.81
2023-01-15T07:12:42.795Z,8.07
2023-01-15T07:15:34.074Z,7.96
2023-01-15T07:18:09.193Z,8.26
2023-01-15T07:20:42.097Z,8.00
2023-01-15T07:23:16.884Z,8.12
2023-01-15T07:25:53.063Z,8.17
2023-01-15T07:28:28.237Z,8.22
2023-01-15T07:31:06.906Z,8.41
2023-01-15T07:33:45.658Z,8.15
2023-01-15T07:36:24.046Z,8.37
2023-01-15T07:39:02.403Z,8.17
2023-01-15T07:42:01.924Z,8.69
2023-01-15T07:44:59.104Z,8.48
2023-01-15T07:47:53.451Z,8.25
2023-01-15T07:50:34.636Z,8.32
2023-01-15T07:53:18.928Z,8.52
2023-01-15T07:56:06.935Z,8.84
2023-01-15T07:59:25.028Z,8.88
2023-01-15T08:02:40.916Z,8.37
2023-01-15T08:15:45.358Z,8.96
2023-01-15T08:21:57.665Z,9.17
2023-01-15T08:28:27.582Z,9.12
2023-01-15T08:39:33.500Z,9.70
2023-01-15T10:19:17.200Z,10.10
2023-01-15T10:22:06.787Z,10.00
2023-01-15T10:25:09.880Z,9.80
2023-01-15T10:27:48.407Z,9.55
2023-01-15T10:30:31.979Z,9.47
2023-01-15T10:33:14.357Z,9.58
2023-01-15T10:35:57.770Z,9.44
2023-01-15T10:38:35.240Z,8.93
2023-01-15T11:59:17.989Z,8.08
2023-01-15T12:36:30.460Z,7.02
2023-01-15T14:35:38.317Z,5.49
2023-01-15T15:01:08.023Z,5.38
2023-01-15T15:45:40.602Z,4.37
2023-01-15T15:48:32.658Z,4.56
2023-01-15T16:57:05.774Z,4.66
2023-01-15T17:27:36.372Z,4.31
2023-01-15T17:30:20.126Z,4.17
2023-01-15T22:27:16.128Z,2.55
